sensor_id;sensor_type;location;lat;lon;timestamp;P1;durP1;ratioP1;P2;durP2;ratioP2
37379;SDS011;23252;-33.992;18.480;2022-10-10T00:03:53;19.50;;;3.30;;
37379;SDS011;23252;-33.992;18.480;2022-10-10T00:06:22;20.05;;;2.90;;
37379;SDS011;23252;-33.992;18.480;2022-10-10T00:08:49;15.38;;;2.72;;
37379;SDS011;23252;-33.992;18.480;2022-10-10T00:11:17;13.13;;;2.35;;
37379;SDS011;23252;-33.992;18.480;2022-10-10T00:13:47;18.58;;;2.95;;
37379;SDS011;23252;-33.992;18.480;2022-10-10T00:16:15;15.23;;;2.97;;
37379;SDS011;23252;-33.992;18.480;2022-10-10T00:18:43;13.88;;;2.80;;
37379;SDS011;23252;-33.992;18.480;2022-10-10T00:21:10;16.83;;;2.85;;
37379;SDS011;23252;-33.992;18.480;2022-10-10T00:23:38;13.43;;;2.90;;
37379;SDS011;23252;-33.992;18.480;2022-10-10T00:26:05;15.00;;;2.50;;
37379;SDS011;23252;-33.992;18.480;2022-10-10T00:28:31;13.55;;;3.10;;
37379;SDS011;23252;-33.992;18.480;2022-10-10T00:30:58;15.82;;;2.80;;
37379;SDS011;23252;-33.992;18.480;2022-10-10T00:33:24;16.03;;;3.80;;
37379;SDS011;23252;-33.992;18.480;2022-10-10T00:35:51;17.67;;;2.67;;
37379;SDS011;23252;-33.992;18.480;2022-10-10T00:38:17;23.27;;;3.57;;
37379;SDS011;23252;-33.992;18.480;2022-10-10T00:40:48;13.32;;;2.70;;
37379;SDS011;23252;-33.992;18.480;2022-10-10T00:43:19;10.38;;;2.75;;
37379;SDS011;23252;-33.992;18.480;2022-10-10T00:45:47;16.20;;;2.92;;
37379;SDS011;23252;-33.992;18.480;2022-10-10T00:48:57;20.45;;;3.65;;
37379;SDS011;23252;-33.992;18.480;2022-10-10T00:51:14;17.80;;;3.10;;
37379;SDS011;23252;-33.992;18.480;2022-10-10T00:53:47;18.15;;;3.35;;
37379;SDS011;23252;-33.992;18.480;2022-10-10T00:56:20;15.88;;;2.95;;
37379;SDS011;23252;-33.992;18.480;2022-10-10T00:58:51;18.92;;;3.00;;
37379;SDS011;23252;-33.992;18.480;2022-10-10T01:01:20;16.45;;;2.58;;
37379;SDS011;23252;-33.992;18.480;2022-10-10T01:03:47;12.13;;;2.60;;
37379;SDS011;23252;-33.992;18.480;2022-10-10T01:06:14;14.15;;;2.17;;
37379;SDS011;23252;-33.992;18.480;2022-10-10T01:08:41;9.85;;;2.30;;
37379;SDS011;23252;-33.992;18.480;2022-10-10T01:11:16;10.40;;;2.25;;
37379;SDS011;23252;-33.992;18.480;2022-10-10T01:31:34;16.90;;;2.45;;
37379;SDS011;23252;-33.992;18.480;2022-10-10T01:34:13;10.13;;;1.88;;
37379;SDS011;23252;-33.992;18.480;2022-10-10T01:36:50;9.43;;;2.33;;
37379;SDS011;23252;-33.992;18.480;2022-10-10T01:42:27;15.52;;;1.85;;
37379;SDS011;23252;-33.992;18.480;2022-10-10T01:45:00;9.52;;;1.88;;
37379;SDS011;23252;-33.992;18.480;2022-10-10T01:47:27;11.05;;;1.80;;
37379;SDS011;23252;-33.992;18.480;2022-10-10T01:49:55;10.70;;;2.13;;
37379;SDS011;23252;-33.992;18.480;2022-10-10T01:52:32;10.63;;;2.25;;
37379;SDS011;23252;-33.992;18.480;2022-10-10T01:55:07;7.28;;;1.52;;
37379;SDS011;23252;-33.992;18.480;2022-10-10T01:57:59;9.60;;;2.30;;
37379;SDS011;23252;-33.992;18.480;2022-10-10T02:00:45;9.32;;;2.25;;
37379;SDS011;23252;-33.992;18.480;2022-10-10T02:03:26;9.20;;;2.22;;
37379;SDS011;23252;-33.992;18.480;2022-10-10T02:08:35;8.02;;;2.08;;
37379;SDS011;23252;-33.992;18.480;2022-10-10T02:11:09;11.80;;;2.22;;
37379;SDS011;23252;-33.992;18.480;2022-10-10T02:13:39;13.30;;;2.70;;
37379;SDS011;23252;-33.992;18.480;2022-10-10T02:16:15;8.87;;;1.90;;
37379;SDS011;23252;-33.992;18.480;2022-10-10T02:18:45;11.60;;;2.55;;
37379;SDS011;23252;-33.992;18.480;2022-10-10T02:21:13;11.88;;;1.90;;
37379;SDS011;23252;-33.992;18.480;2022-10-10T02:23:42;7.68;;;2.03;;
37379;SDS011;23252;-33.992;18.480;2022-10-10T02:26:12;8.32;;;1.50;;
37379;SDS011;23252;-33.992;18.480;2022-10-10T02:28:43;14.20;;;2.08;;
37379;SDS011;23252;-33.992;18.480;2022-10-10T02:31:27;12.30;;;1.77;;
37379;SDS011;23252;-33.992;18.480;2022-10-10T02:34:06;8.73;;;1.65;;
37379;SDS011;23252;-33.992;18.480;2022-10-10T02:36:50;9.88;;;1.73;;
37379;SDS011;23252;-33.992;18.480;2022-10-10T02:39:20;6.10;;;1.48;;
37379;SDS011;23252;-33.992;18.480;2022-10-10T02:41:50;12.70;;;1.83;;
37379;SDS011;23252;-33.992;18.480;2022-10-10T02:44:18;9.15;;;3.13;;
37379;SDS011;23252;-33.992;18.480;2022-10-10T02:46:45;7.68;;;2.03;;
37379;SDS011;23252;-33.992;18.480;2022-10-10T02:49:12;10.98;;;1.70;;
37379;SDS011;23252;-33.992;18.480;2022-10-10T02:51:39;12.40;;;2.55;;
37379;SDS011;23252;-33.992;18.480;2022-10-10T02:54:05;8.50;;;2.10;;
37379;SDS011;23252;-33.992;18.480;2022-10-10T02:56:32;10.68;;;1.77;;
37379;SDS011;23252;-33.992;18.480;2022-10-10T02:58:58;10.52;;;1.60;;
37379;SDS011;23252;-33.992;18.480;2022-10-10T03:01:25;8.23;;;1.70;;
37379;SDS011;23252;-33.992;18.480;2022-10-10T03:03:52;5.93;;;1.95;;
37379;SDS011;23252;-33.992;18.480;2022-10-10T03:06:18;7.93;;;2.10;;
37379;SDS011;23252;-33.992;18.480;2022-10-10T03:08:45;9.97;;;2.07;;
37379;SDS011;23252;-33.992;18.480;2022-10-10T03:11:11;8.93;;;1.93;;
37379;SDS011;23252;-33.992;18.480;2022-10-10T03:13:37;10.63;;;1.97;;
37379;SDS011;23252;-33.992;18.480;2022-10-10T03:16:04;5.70;;;1.80;;
37379;SDS011;23252;-33.992;18.480;2022-10-10T03:18:31;10.48;;;1.95;;
37379;SDS011;23252;-33.992;18.480;2022-10-10T03:20:57;5.90;;;1.45;;
37379;SDS011;23252;-33.992;18.480;2022-10-10T03:23:24;7.57;;;2.00;;
37379;SDS011;23252;-33.992;18.480;2022-10-10T03:25:50;11.17;;;2.27;;
37379;SDS011;23252;-33.992;18.480;2022-10-10T03:28:17;11.40;;;2.25;;
37379;SDS011;23252;-33.992;18.480;2022-10-10T03:30:44;7.88;;;2.50;;
37379;SDS011;23252;-33.992;18.480;2022-10-10T03:33:11;13.25;;;2.80;;
37379;SDS011;23252;-33.992;18.480;2022-10-10T03:35:38;11.95;;;2.50;;
37379;SDS011;23252;-33.992;18.480;2022-10-10T03:38:05;12.73;;;2.22;;
37379;SDS011;23252;-33.992;18.480;2022-10-10T03:40:32;7.22;;;2.10;;
37379;SDS011;23252;-33.992;18.480;2022-10-10T03:42:59;9.18;;;1.92;;
37379;SDS011;23252;-33.992;18.480;2022-10-10T03:45:25;15.73;;;2.60;;
37379;SDS011;23252;-33.992;18.480;2022-10-10T03:47:52;11.48;;;2.40;;
37379;SDS011;23252;-33.992;18.480;2022-10-10T03:50:27;11.63;;;2.58;;
37379;SDS011;23252;-33.992;18.480;2022-10-10T03:52:54;12.63;;;2.15;;
37379;SDS011;23252;-33.992;18.480;2022-10-10T03:55:21;12.07;;;2.20;;
37379;SDS011;23252;-33.992;18.480;2022-10-10T03:57:47;12.73;;;2.55;;
37379;SDS011;23252;-33.992;18.480;2022-10-10T04:00:14;11.17;;;3.00;;
37379;SDS011;23252;-33.992;18.480;2022-10-10T04:02:40;10.77;;;2.55;;
37379;SDS011;23252;-33.992;18.480;2022-10-10T04:05:07;11.32;;;2.15;;
37379;SDS011;23252;-33.992;18.480;2022-10-10T04:07:34;9.77;;;2.45;;
37379;SDS011;23252;-33.992;18.480;2022-10-10T04:10:00;11.35;;;2.63;;
37379;SDS011;23252;-33.992;18.480;2022-10-10T04:12:27;9.30;;;2.45;;
37379;SDS011;23252;-33.992;18.480;2022-10-10T04:18:15;12.68;;;2.38;;
37379;SDS011;23252;-33.992;18.480;2022-10-10T04:20:34;9.95;;;2.42;;
37379;SDS011;23252;-33.992;18.480;2022-10-10T04:23:01;15.63;;;2.72;;
37379;SDS011;23252;-33.992;18.480;2022-10-10T04:25:28;11.25;;;2.42;;
37379;SDS011;23252;-33.992;18.480;2022-10-10T04:27:57;12.70;;;2.33;;
37379;SDS011;23252;-33.992;18.480;2022-10-10T04:30:33;8.48;;;2.20;;
37379;SDS011;23252;-33.992;18.480;2022-10-10T04:32:59;11.40;;;2.30;;
37379;SDS011;23252;-33.992;18.480;2022-10-10T04:38:23;13.73;;;2.72;;
37379;SDS011;23252;-33.992;18.480;2022-10-10T04:40:53;12.07;;;2.90;;
37379;SDS011;23252;-33.992;18.480;2022-10-10T04:43:28;6.70;;;2.25;;
37379;SDS011;23252;-33.992;18.480;2022-10-10T04:45:56;11.27;;;2.80;;
37379;SDS011;23252;-33.992;18.480;2022-10-10T04:50:53;15.50;;;2.58;;
37379;SDS011;23252;-33.992;18.480;2022-10-10T04:53:20;12.18;;;2.60;;
37379;SDS011;23252;-33.992;18.480;2022-10-10T04:55:47;7.97;;;2.15;;
37379;SDS011;23252;-33.992;18.480;2022-10-10T04:58:14;17.58;;;2.63;;
37379;SDS011;23252;-33.992;18.480;2022-10-10T05:00:41;14.05;;;2.50;;
37379;SDS011;23252;-33.992;18.480;2022-10-10T05:03:08;10.82;;;2.45;;
37379;SDS011;23252;-33.992;18.480;2022-10-10T05:05:37;14.45;;;2.58;;
37379;SDS011;23252;-33.992;18.480;2022-10-10T05:08:04;13.60;;;2.85;;
37379;SDS011;23252;-33.992;18.480;2022-10-10T05:10:34;16.85;;;3.50;;
37379;SDS011;23252;-33.992;18.480;2022-10-10T05:13:03;8.35;;;2.63;;
37379;SDS011;23252;-33.992;18.480;2022-10-10T05:15:34;11.10;;;2.95;;
37379;SDS011;23252;-33.992;18.480;2022-10-10T05:18:01;11.32;;;2.75;;
37379;SDS011;23252;-33.992;18.480;2022-10-10T05:22:54;16.13;;;2.55;;
37379;SDS011;23252;-33.992;18.480;2022-10-10T05:25:21;9.57;;;2.20;;
37379;SDS011;23252;-33.992;18.480;2022-10-10T05:27:50;13.32;;;3.20;;
37379;SDS011;23252;-33.992;18.480;2022-10-10T05:30:17;11.80;;;2.72;;
37379;SDS011;23252;-33.992;18.480;2022-10-10T05:32:43;8.90;;;2.60;;
37379;SDS011;23252;-33.992;18.480;2022-10-10T05:35:10;9.10;;;2.20;;
37379;SDS011;23252;-33.992;18.480;2022-10-10T05:37:36;7.87;;;2.60;;
37379;SDS011;23252;-33.992;18.480;2022-10-10T05:40:03;15.32;;;2.63;;
37379;SDS011;23252;-33.992;18.480;2022-10-10T05:42:30;7.22;;;2.00;;
37379;SDS011;23252;-33.992;18.480;2022-10-10T05:44:57;10.03;;;2.50;;
37379;SDS011;23252;-33.992;18.480;2022-10-10T05:47:23;10.98;;;2.63;;
37379;SDS011;23252;-33.992;18.480;2022-10-10T05:49:50;10.13;;;2.22;;
37379;SDS011;23252;-33.992;18.480;2022-10-10T05:52:16;8.87;;;2.30;;
37379;SDS011;23252;-33.992;18.480;2022-10-10T05:54:43;12.10;;;2.17;;
37379;SDS011;23252;-33.992;18.480;2022-10-10T05:57:10;11.98;;;2.35;;
37379;SDS011;23252;-33.992;18.480;2022-10-10T05:59:36;4.97;;;1.90;;
37379;SDS011;23252;-33.992;18.480;2022-10-10T06:02:04;10.30;;;2.30;;
37379;SDS011;23252;-33.992;18.480;2022-10-10T06:04:31;9.15;;;1.95;;
37379;SDS011;23252;-33.992;18.480;2022-10-10T06:06:57;13.02;;;2.85;;
37379;SDS011;23252;-33.992;18.480;2022-10-10T06:09:24;7.82;;;2.55;;
37379;SDS011;23252;-33.992;18.480;2022-10-10T06:11:50;9.25;;;2.53;;
37379;SDS011;23252;-33.992;18.480;2022-10-10T06:14:17;10.18;;;2.25;;
37379;SDS011;23252;-33.992;18.480;2022-10-10T06:16:43;8.48;;;2.33;;
37379;SDS011;23252;-33.992;18.480;2022-10-10T06:19:10;10.40;;;2.50;;
37379;SDS011;23252;-33.992;18.480;2022-10-10T06:21:36;10.05;;;2.20;;
37379;SDS011;23252;-33.992;18.480;2022-10-10T06:24:03;12.43;;;2.45;;
37379;SDS011;23252;-33.992;18.480;2022-10-10T06:26:31;14.95;;;3.35;;
37379;SDS011;23252;-33.992;18.480;2022-10-10T06:28:58;11.00;;;2.50;;
37379;SDS011;23252;-33.992;18.480;2022-10-10T06:31:24;10.98;;;2.33;;
37379;SDS011;23252;-33.992;18.480;2022-10-10T06:33:51;13.13;;;2.60;;
37379;SDS011;23252;-33.992;18.480;2022-10-10T06:36:17;13.18;;;2.72;;
37379;SDS011;23252;-33.992;18.480;2022-10-10T06:38:44;14.40;;;2.70;;
37379;SDS011;23252;-33.992;18.480;2022-10-10T06:43:37;12.52;;;3.40;;
37379;SDS011;23252;-33.992;18.480;2022-10-10T06:46:05;16.05;;;3.05;;
37379;SDS011;23252;-33.992;18.480;2022-10-10T06:48:32;21.65;;;3.00;;
37379;SDS011;23252;-33.992;18.480;2022-10-10T06:51:04;15.70;;;3.95;;
37379;SDS011;23252;-33.992;18.480;2022-10-10T06:53:32;14.80;;;3.60;;
37379;SDS011;23252;-33.992;18.480;2022-10-10T06:56:00;23.08;;;3.97;;
37379;SDS011;23252;-33.992;18.480;2022-10-10T07:00:54;21.75;;;3.85;;
37379;SDS011;23252;-33.992;18.480;2022-10-10T07:03:22;21.33;;;4.57;;
37379;SDS011;23252;-33.992;18.480;2022-10-10T07:05:50;18.25;;;4.15;;
37379;SDS011;23252;-33.992;18.480;2022-10-10T07:08:20;19.80;;;4.15;;
37379;SDS011;23252;-33.992;18.480;2022-10-10T07:13:14;20.20;;;3.80;;
37379;SDS011;23252;-33.992;18.480;2022-10-10T07:18:07;15.60;;;3.53;;
37379;SDS011;23252;-33.992;18.480;2022-10-10T07:23:00;16.42;;;3.50;;
37379;SDS011;23252;-33.992;18.480;2022-10-10T07:25:27;17.13;;;3.42;;
37379;SDS011;23252;-33.992;18.480;2022-10-10T07:27:53;20.63;;;3.95;;
37379;SDS011;23252;-33.992;18.480;2022-10-10T07:32:47;18.40;;;5.20;;
37379;SDS011;23252;-33.992;18.480;2022-10-10T07:35:14;20.00;;;4.00;;
37379;SDS011;23252;-33.992;18.480;2022-10-10T07:37:41;12.63;;;3.47;;
37379;SDS011;23252;-33.992;18.480;2022-10-10T07:40:08;17.13;;;3.35;;
37379;SDS011;23252;-33.992;18.480;2022-10-10T07:42:34;16.02;;;3.83;;
37379;SDS011;23252;-33.992;18.480;2022-10-10T07:45:02;14.77;;;3.58;;
37379;SDS011;23252;-33.992;18.480;2022-10-10T07:47:32;16.10;;;3.45;;
37379;SDS011;23252;-33.992;18.480;2022-10-10T07:49:58;16.73;;;3.58;;
37379;SDS011;23252;-33.992;18.480;2022-10-10T07:52:25;21.58;;;4.20;;
37379;SDS011;23252;-33.992;18.480;2022-10-10T07:54:54;16.98;;;3.53;;
37379;SDS011;23252;-33.992;18.480;2022-10-10T07:57:21;15.15;;;3.70;;
37379;SDS011;23252;-33.992;18.480;2022-10-10T07:59:50;17.67;;;3.63;;
37379;SDS011;23252;-33.992;18.480;2022-10-10T08:02:20;19.25;;;3.53;;
37379;SDS011;23252;-33.992;18.480;2022-10-10T08:04:46;13.00;;;2.70;;
37379;SDS011;23252;-33.992;18.480;2022-10-10T08:07:13;12.38;;;3.38;;
37379;SDS011;23252;-33.992;18.480;2022-10-10T08:09:39;18.45;;;3.30;;
37379;SDS011;23252;-33.992;18.480;2022-10-10T08:12:06;16.00;;;3.15;;
37379;SDS011;23252;-33.992;18.480;2022-10-10T08:14:32;12.20;;;2.60;;
37379;SDS011;23252;-33.992;18.480;2022-10-10T08:16:59;12.35;;;3.22;;
37379;SDS011;23252;-33.992;18.480;2022-10-10T08:19:25;17.85;;;3.90;;
37379;SDS011;23252;-33.992;18.480;2022-10-10T08:21:52;20.42;;;4.47;;
37379;SDS011;23252;-33.992;18.480;2022-10-10T08:24:21;14.07;;;3.15;;
37379;SDS011;23252;-33.992;18.480;2022-10-10T08:26:48;12.93;;;2.60;;
37379;SDS011;23252;-33.992;18.480;2022-10-10T08:29:17;16.83;;;3.25;;
37379;SDS011;23252;-33.992;18.480;2022-10-10T08:31:43;17.73;;;3.53;;
37379;SDS011;23252;-33.992;18.480;2022-10-10T08:34:10;11.23;;;2.67;;
37379;SDS011;23252;-33.992;18.480;2022-10-10T08:36:38;18.05;;;3.58;;
37379;SDS011;23252;-33.992;18.480;2022-10-10T08:39:05;14.45;;;2.78;;
37379;SDS011;23252;-33.992;18.480;2022-10-10T08:41:49;13.55;;;3.20;;
37379;SDS011;23252;-33.992;18.480;2022-10-10T08:46:54;19.75;;;4.18;;
37379;SDS011;23252;-33.992;18.480;2022-10-10T08:49:47;17.08;;;3.63;;
37379;SDS011;23252;-33.992;18.480;2022-10-10T08:54:48;10.30;;;3.58;;
37379;SDS011;23252;-33.992;18.480;2022-10-10T09:00:19;19.52;;;3.33;;
37379;SDS011;23252;-33.992;18.480;2022-10-10T09:02:51;16.42;;;3.53;;
37379;SDS011;23252;-33.992;18.480;2022-10-10T09:10:54;15.85;;;3.97;;
37379;SDS011;23252;-33.992;18.480;2022-10-10T09:13:32;16.80;;;3.70;;
37379;SDS011;23252;-33.992;18.480;2022-10-10T09:16:07;13.52;;;3.65;;
37379;SDS011;23252;-33.992;18.480;2022-10-10T09:18:42;19.80;;;3.33;;
37379;SDS011;23252;-33.992;18.480;2022-10-10T09:21:19;12.95;;;3.13;;
37379;SDS011;23252;-33.992;18.480;2022-10-10T09:26:50;12.98;;;3.13;;
37379;SDS011;23252;-33.992;18.480;2022-10-10T09:29:32;16.55;;;2.80;;
37379;SDS011;23252;-33.992;18.480;2022-10-10T09:32:32;15.07;;;3.47;;
37379;SDS011;23252;-33.992;18.480;2022-10-10T09:35:15;14.30;;;2.95;;
37379;SDS011;23252;-33.992;18.480;2022-10-10T09:37:58;20.27;;;3.78;;
37379;SDS011;23252;-33.992;18.480;2022-10-10T09:40:53;18.77;;;3.33;;
37379;SDS011;23252;-33.992;18.480;2022-10-10T09:43:31;13.25;;;3.55;;
37379;SDS011;23252;-33.992;18.480;2022-10-10T09:46:00;19.35;;;3.45;;
37379;SDS011;23252;-33.992;18.480;2022-10-10T09:48:28;15.45;;;3.95;;
37379;SDS011;23252;-33.992;18.480;2022-10-10T09:51:05;18.05;;;3.15;;
37379;SDS011;23252;-33.992;18.480;2022-10-10T09:53:37;13.73;;;3.38;;
37379;SDS011;23252;-33.992;18.480;2022-10-10T09:56:05;13.75;;;3.13;;
37379;SDS011;23252;-33.992;18.480;2022-10-10T09:58:41;18.70;;;4.03;;
37379;SDS011;23252;-33.992;18.480;2022-10-10T10:01:22;17.45;;;3.17;;
37379;SDS011;23252;-33.992;18.480;2022-10-10T10:06:44;12.82;;;2.60;;
37379;SDS011;23252;-33.992;18.480;2022-10-10T10:09:17;13.77;;;2.60;;
37379;SDS011;23252;-33.992;18.480;2022-10-10T10:11:46;12.30;;;2.72;;
37379;SDS011;23252;-33.992;18.480;2022-10-10T10:14:30;13.43;;;2.97;;
37379;SDS011;23252;-33.992;18.480;2022-10-10T10:17:07;12.35;;;2.85;;
37379;SDS011;23252;-33.992;18.480;2022-10-10T10:19:45;15.13;;;3.30;;
37379;SDS011;23252;-33.992;18.480;2022-10-10T10:28:10;14.70;;;2.97;;
37379;SDS011;23252;-33.992;18.480;2022-10-10T10:30:40;10.07;;;3.03;;
37379;SDS011;23252;-33.992;18.480;2022-10-10T10:36:07;15.45;;;3.40;;
37379;SDS011;23252;-33.992;18.480;2022-10-10T10:41:35;18.05;;;3.30;;
37379;SDS011;23252;-33.992;18.480;2022-10-10T10:44:13;25.20;;;3.45;;
37379;SDS011;23252;-33.992;18.480;2022-10-10T10:49:49;13.35;;;3.13;;
37379;SDS011;23252;-33.992;18.480;2022-10-10T11:00:58;12.52;;;3.00;;
37379;SDS011;23252;-33.992;18.480;2022-10-10T11:09:11;7.25;;;2.33;;
37379;SDS011;23252;-33.992;18.480;2022-10-10T11:12:05;11.00;;;2.45;;
37379;SDS011;23252;-33.992;18.480;2022-10-10T11:14:53;10.63;;;2.85;;
37379;SDS011;23252;-33.992;18.480;2022-10-10T11:17:27;12.30;;;2.53;;
37379;SDS011;23252;-33.992;18.480;2022-10-10T11:22:42;7.07;;;1.98;;
37379;SDS011;23252;-33.992;18.480;2022-10-10T11:25:28;16.33;;;2.95;;
37379;SDS011;23252;-33.992;18.480;2022-10-10T11:28:07;13.50;;;3.03;;
37379;SDS011;23252;-33.992;18.480;2022-10-10T11:30:38;18.88;;;3.13;;
37379;SDS011;23252;-33.992;18.480;2022-10-10T11:33:12;15.50;;;3.03;;
37379;SDS011;23252;-33.992;18.480;2022-10-10T11:36:04;14.15;;;3.03;;
37379;SDS011;23252;-33.992;18.480;2022-10-10T11:38:37;17.90;;;3.63;;
37379;SDS011;23252;-33.992;18.480;2022-10-10T11:41:21;11.45;;;2.58;;
37379;SDS011;23252;-33.992;18.480;2022-10-10T11:43:51;14.85;;;2.67;;
37379;SDS011;23252;-33.992;18.480;2022-10-10T11:49:32;20.13;;;3.63;;
37379;SDS011;23252;-33.992;18.480;2022-10-10T11:54:43;12.20;;;2.58;;
37379;SDS011;23252;-33.992;18.480;2022-10-10T11:57:24;18.58;;;3.15;;
37379;SDS011;23252;-33.992;18.480;2022-10-10T12:00:08;18.80;;;3.33;;
37379;SDS011;23252;-33.992;18.480;2022-10-10T12:02:38;21.02;;;4.28;;
37379;SDS011;23252;-33.992;18.480;2022-10-10T12:05:28;15.80;;;4.15;;
37379;SDS011;23252;-33.992;18.480;2022-10-10T12:10:47;24.65;;;4.10;;
37379;SDS011;23252;-33.992;18.480;2022-10-10T12:15:55;22.33;;;4.10;;
37379;SDS011;23252;-33.992;18.480;2022-10-10T12:18:27;14.20;;;3.00;;
37379;SDS011;23252;-33.992;18.480;2022-10-10T12:21:03;19.90;;;3.85;;
37379;SDS011;23252;-33.992;18.480;2022-10-10T12:24:13;26.52;;;3.92;;
37379;SDS011;23252;-33.992;18.480;2022-10-10T12:37:21;19.98;;;4.38;;
37379;SDS011;23252;-33.992;18.480;2022-10-10T12:42:33;32.17;;;4.75;;
37379;SDS011;23252;-33.992;18.480;2022-10-10T12:47:56;17.83;;;4.18;;
37379;SDS011;23252;-33.992;18.480;2022-10-10T12:50:43;31.00;;;4.20;;
37379;SDS011;23252;-33.992;18.480;2022-10-10T12:53:24;22.45;;;4.30;;
37379;SDS011;23252;-33.992;18.480;2022-10-10T12:55:55;28.05;;;5.13;;
37379;SDS011;23252;-33.992;18.480;2022-10-10T12:58:32;21.48;;;4.78;;
37379;SDS011;23252;-33.992;18.480;2022-10-10T13:01:08;22.13;;;4.43;;
37379;SDS011;23252;-33.992;18.480;2022-10-10T13:04:04;20.38;;;4.88;;
37379;SDS011;23252;-33.992;18.480;2022-10-10T13:06:36;18.67;;;4.43;;
37379;SDS011;23252;-33.992;18.480;2022-10-10T13:09:23;28.08;;;4.95;;
37379;SDS011;23252;-33.992;18.480;2022-10-10T13:11:56;23.92;;;3.85;;
37379;SDS011;23252;-33.992;18.480;2022-10-10T13:14:36;24.50;;;3.97;;
37379;SDS011;23252;-33.992;18.480;2022-10-10T13:19:48;25.40;;;4.40;;
37379;SDS011;23252;-33.992;18.480;2022-10-10T13:24:42;17.92;;;3.78;;
37379;SDS011;23252;-33.992;18.480;2022-10-10T13:27:16;19.83;;;4.55;;
37379;SDS011;23252;-33.992;18.480;2022-10-10T13:29:46;25.17;;;4.40;;
37379;SDS011;23252;-33.992;18.480;2022-10-10T13:32:17;23.00;;;4.32;;
37379;SDS011;23252;-33.992;18.480;2022-10-10T13:35:03;20.85;;;3.70;;
37379;SDS011;23252;-33.992;18.480;2022-10-10T13:37:37;27.77;;;4.55;;
37379;SDS011;23252;-33.992;18.480;2022-10-10T13:40:12;22.05;;;4.30;;
37379;SDS011;23252;-33.992;18.480;2022-10-10T13:42:40;26.60;;;4.43;;
37379;SDS011;23252;-33.992;18.480;2022-10-10T13:45:42;26.90;;;4.07;;
37379;SDS011;23252;-33.992;18.480;2022-10-10T13:58:40;27.52;;;4.82;;
37379;SDS011;23252;-33.992;18.480;2022-10-10T14:03:53;21.70;;;4.30;;
37379;SDS011;23252;-33.992;18.480;2022-10-10T14:09:20;17.33;;;3.88;;
37379;SDS011;23252;-33.992;18.480;2022-10-10T14:11:54;19.52;;;4.80;;
37379;SDS011;23252;-33.992;18.480;2022-10-10T14:14:48;24.38;;;4.95;;
37379;SDS011;23252;-33.992;18.480;2022-10-10T14:17:13;22.20;;;5.10;;
37379;SDS011;23252;-33.992;18.480;2022-10-10T14:19:41;27.30;;;6.03;;
37379;SDS011;23252;-33.992;18.480;2022-10-10T14:22:08;25.25;;;5.07;;
37379;SDS011;23252;-33.992;18.480;2022-10-10T14:24:35;25.85;;;4.93;;
37379;SDS011;23252;-33.992;18.480;2022-10-10T14:29:44;18.42;;;5.10;;
37379;SDS011;23252;-33.992;18.480;2022-10-10T14:32:11;20.77;;;4.97;;
37379;SDS011;23252;-33.992;18.480;2022-10-10T14:34:38;22.92;;;4.75;;
37379;SDS011;23252;-33.992;18.480;2022-10-10T14:37:07;28.17;;;5.13;;
37379;SDS011;23252;-33.992;18.480;2022-10-10T14:39:43;29.55;;;5.43;;
37379;SDS011;23252;-33.992;18.480;2022-10-10T14:42:11;25.13;;;5.15;;
37379;SDS011;23252;-33.992;18.480;2022-10-10T14:44:39;20.45;;;5.22;;
37379;SDS011;23252;-33.992;18.480;2022-10-10T14:47:05;24.15;;;5.85;;
37379;SDS011;23252;-33.992;18.480;2022-10-10T14:49:33;23.75;;;5.22;;
37379;SDS011;23252;-33.992;18.480;2022-10-10T14:52:00;14.85;;;3.58;;
37379;SDS011;23252;-33.992;18.480;2022-10-10T14:54:26;16.48;;;3.70;;
37379;SDS011;23252;-33.992;18.480;2022-10-10T14:56:53;17.30;;;3.95;;
37379;SDS011;23252;-33.992;18.480;2022-10-10T14:59:20;18.92;;;4.50;;
37379;SDS011;23252;-33.992;18.480;2022-10-10T15:01:46;19.25;;;4.80;;
37379;SDS011;23252;-33.992;18.480;2022-10-10T15:04:13;21.83;;;4.80;;
37379;SDS011;23252;-33.992;18.480;2022-10-10T15:06:40;18.00;;;5.15;;
37379;SDS011;23252;-33.992;18.480;2022-10-10T15:09:07;17.35;;;4.10;;
37379;SDS011;23252;-33.992;18.480;2022-10-10T15:11:35;15.77;;;4.32;;
37379;SDS011;23252;-33.992;18.480;2022-10-10T15:14:02;24.67;;;5.25;;
37379;SDS011;23252;-33.992;18.480;2022-10-10T15:16:29;18.30;;;4.88;;
37379;SDS011;23252;-33.992;18.480;2022-10-10T15:18:55;14.02;;;3.63;;
37379;SDS011;23252;-33.992;18.480;2022-10-10T15:21:22;25.40;;;5.88;;
37379;SDS011;23252;-33.992;18.480;2022-10-10T15:23:48;19.80;;;5.00;;
37379;SDS011;23252;-33.992;18.480;2022-10-10T15:26:15;20.30;;;4.50;;
37379;SDS011;23252;-33.992;18.480;2022-10-10T15:28:42;18.77;;;4.50;;
37379;SDS011;23252;-33.992;18.480;2022-10-10T15:31:08;22.58;;;5.00;;
37379;SDS011;23252;-33.992;18.480;2022-10-10T15:33:35;31.27;;;6.20;;
37379;SDS011;23252;-33.992;18.480;2022-10-10T15:36:02;22.23;;;5.45;;
37379;SDS011;23252;-33.992;18.480;2022-10-10T15:38:31;23.00;;;4.70;;
37379;SDS011;23252;-33.992;18.480;2022-10-10T15:41:00;28.77;;;5.35;;
37379;SDS011;23252;-33.992;18.480;2022-10-10T15:43:30;21.45;;;5.97;;
37379;SDS011;23252;-33.992;18.480;2022-10-10T15:46:07;36.10;;;7.15;;
37379;SDS011;23252;-33.992;18.480;2022-10-10T15:48:34;29.60;;;6.55;;
37379;SDS011;23252;-33.992;18.480;2022-10-10T15:51:03;29.95;;;6.88;;
37379;SDS011;23252;-33.992;18.480;2022-10-10T15:53:31;27.30;;;6.53;;
37379;SDS011;23252;-33.992;18.480;2022-10-10T15:55:57;25.38;;;7.22;;
37379;SDS011;23252;-33.992;18.480;2022-10-10T15:58:24;29.77;;;6.45;;
37379;SDS011;23252;-33.992;18.480;2022-10-10T16:00:51;29.08;;;7.50;;
37379;SDS011;23252;-33.992;18.480;2022-10-10T16:03:17;27.85;;;7.32;;
37379;SDS011;23252;-33.992;18.480;2022-10-10T16:05:43;26.00;;;6.53;;
37379;SDS011;23252;-33.992;18.480;2022-10-10T16:08:10;32.22;;;6.78;;
37379;SDS011;23252;-33.992;18.480;2022-10-10T16:10:40;39.03;;;7.68;;
37379;SDS011;23252;-33.992;18.480;2022-10-10T16:13:08;29.52;;;7.07;;
37379;SDS011;23252;-33.992;18.480;2022-10-10T16:15:35;41.40;;;9.35;;
37379;SDS011;23252;-33.992;18.480;2022-10-10T16:18:01;27.45;;;9.27;;
37379;SDS011;23252;-33.992;18.480;2022-10-10T16:20:28;35.45;;;9.55;;
37379;SDS011;23252;-33.992;18.480;2022-10-10T16:22:55;27.52;;;8.95;;
37379;SDS011;23252;-33.992;18.480;2022-10-10T16:25:21;31.42;;;9.55;;
37379;SDS011;23252;-33.992;18.480;2022-10-10T16:27:48;31.27;;;9.20;;
37379;SDS011;23252;-33.992;18.480;2022-10-10T16:30:15;29.17;;;9.15;;
37379;SDS011;23252;-33.992;18.480;2022-10-10T16:32:41;28.48;;;8.57;;
37379;SDS011;23252;-33.992;18.480;2022-10-10T16:35:08;32.15;;;8.85;;
37379;SDS011;23252;-33.992;18.480;2022-10-10T16:37:36;29.38;;;9.43;;
37379;SDS011;23252;-33.992;18.480;2022-10-10T16:40:03;33.47;;;8.85;;
37379;SDS011;23252;-33.992;18.480;2022-10-10T16:42:30;31.20;;;9.57;;
37379;SDS011;23252;-33.992;18.480;2022-10-10T16:44:57;33.33;;;9.18;;
37379;SDS011;23252;-33.992;18.480;2022-10-10T16:47:23;37.30;;;9.45;;
37379;SDS011;23252;-33.992;18.480;2022-10-10T16:49:50;34.58;;;9.45;;
37379;SDS011;23252;-33.992;18.480;2022-10-10T16:52:16;29.55;;;9.32;;
37379;SDS011;23252;-33.992;18.480;2022-10-10T16:54:43;29.90;;;9.75;;
37379;SDS011;23252;-33.992;18.480;2022-10-10T16:57:09;21.85;;;8.90;;
37379;SDS011;23252;-33.992;18.480;2022-10-10T16:59:38;36.38;;;9.77;;
37379;SDS011;23252;-33.992;18.480;2022-10-10T17:02:05;27.55;;;10.45;;
37379;SDS011;23252;-33.992;18.480;2022-10-10T17:04:31;30.52;;;10.07;;